Jepson Prairie Reserve, California Weather observations

Data are for 10 minute period ending at time listed.
 Day   Time   Solar   Ave.   Ave.  Ave.  Vector  Max.   Baro.   Total    
  of    of     Rad.   Air    Rel.  Wind   Wind   Wind  Press.  Precip.   
Year   Day            Temp.  Hum.  Speed  Dir.   Gust                    
2014   (PST)  Kw/m2    F      %     mph   deg.    mph    mb.     in.     
-------------------------------------------------------------------------
 297    9:10   0.42   61.3    72    4.0    19     5.6   1013.5    0.00 
 297    9:20   0.44   61.8    71    3.4   355     5.5   1013.5    0.00 
 297    9:30   0.47   62.5    70    3.7    17     5.8   1013.5    0.00 
 297    9:40   0.49   62.9    69    4.3     2     8.6   1013.5    0.00 
 297    9:50   0.51   63.0    69    4.3     8     7.7   1013.5    0.00 
 297   10:00   0.53   64.1    67    5.1   358     8.6   1013.2    0.00 
 297   10:10   0.54   64.5    66    5.3    12     8.5   1013.2    0.00 
 297   10:20   0.56   65.0    65    5.3     9     8.9   1013.2    0.00 
 297   10:30   0.57   65.6    63    5.5     5    10.0   1012.9    0.00 
 297   10:40   0.58   65.9    63    5.5   360     8.5   1012.9    0.00 
 297   10:50   0.60   66.8    62    5.0    33     8.9   1012.9    0.00 
 297   11:00   0.60   67.4    61    5.2    48     9.0   1012.5    0.00 
 297   11:10   0.61   67.3    62    4.1     3     7.3   1012.9    0.00 
 297   11:20   0.62   68.4    60    3.5    25     8.3   1012.5    0.00 
 297   11:30   0.63   69.0    59    2.8    85     5.1   1012.5    0.00 
 297   11:40   0.63   69.5    58    3.7    16     7.5   1012.2    0.00 
 297   11:50   0.63   70.4    56    2.9    79     5.4   1011.9    0.00 
 297   12:00   0.63   70.7    57    3.5     7     6.5   1011.5    0.00 
 297   12:10   0.63   71.0    57    3.5    40     7.6   1011.5    0.00 
 297   12:20   0.62   71.8    55    2.5    48     5.6   1011.2    0.00 
 297   12:30   0.61   71.8    54    3.6   302     7.7   1011.2    0.00 
 297   12:40   0.61   71.9    54    2.0   310     4.1   1010.8    0.00 
 297   12:50   0.60   72.9    50    4.2   142     7.2   1010.5    0.00 
 297   13:00   0.59   74.5    48    2.3    95     5.9   1010.5    0.00 
 297   13:10   0.58   74.9    46    4.6   200     8.3   1010.2    0.00 
 297   13:20   0.56   75.4    46    2.6   191     6.3   1010.2    0.00 
 297   13:30   0.52   75.7    45    2.8   309     5.6   1009.8    0.00 
 297   13:40   0.54   75.6    44    2.8   237     8.2   1009.5    0.00 
 297   13:50   0.52   76.3    43    6.1   224    10.6   1009.5    0.00 
 297   14:00   0.50   76.7    42    3.9   183     9.6   1009.1    0.00 
 297   14:10   0.47   77.4    40    7.0   209    12.6   1009.1    0.00 
 297   14:20   0.43   77.7    39    8.6   202    13.3   1009.1    0.00 
 297   14:30   0.42   77.1    41    8.0   211    11.6   1009.1    0.00 
 297   14:40   0.41   77.6    40    7.7   215    14.8   1009.1    0.00 
 297   14:50   0.38   77.0    41   10.7   216    15.1   1009.1    0.00 
 297   15:00   0.35   76.4    43   12.7   235    17.6   1009.1    0.00 
 297   15:10   0.28   75.4    46   13.9   224    18.0   1009.1    0.00 
 297   15:20   0.29   74.8    47   14.8   229    18.6   1009.1    0.00 
 297   15:30   0.18   73.2    49   16.2   231    20.4   1009.1    0.00 
 297   15:40   0.27   72.7    52   17.5   235    21.1   1009.1    0.00 
 297   15:50   0.20   72.1    52   17.2   233    22.2   1009.1    0.00 
 297   16:00   0.10   70.9    53   15.7   232    20.5   1009.1    0.00 
 297   16:10   0.09   69.8    56   16.9   225    21.4   1009.5    0.00 
 297   16:20   0.06   69.0    59   14.1   232    17.0   1009.5    0.00 
 297   16:30   0.08   68.4    61   12.7   228    18.3   1009.5    0.00 
 297   16:40   0.07   68.3    61   15.5   221    20.3   1009.5    0.00 
 297   16:50   0.05   67.2    64   15.7   216    19.4   1009.5    0.00 
 297   17:00   0.03   66.4    66   14.5   217    17.8   1009.5    0.00 
 297   17:10   0.01   65.5    69   14.2   221    17.4   1009.5    0.00 
 297   17:20   0.01   64.4    72   14.1   225    18.0   1009.5    0.00 
 297   17:30   0.00   63.5    74   11.1   227    14.1   1009.8    0.00 
 297   17:40   0.00   62.9    75   10.8   229    14.7   1009.8    0.00 
 297   17:50   0.00   62.7    76   11.7   228    14.8   1009.8    0.00 
 297   18:00   0.00   62.2    77   10.8   234    13.2   1009.8    0.00 
 297   18:10   0.00   61.7    78   10.5   229    14.2   1009.8    0.00 
 297   18:20   0.00   61.8    79   11.0   225    13.6   1010.2    0.00 
 297   18:30   0.00   61.5    80   11.3   220    15.4   1010.2    0.00 
 297   18:40   0.00   61.6    80   14.1   222    17.4   1010.2    0.00 
 297   18:50   0.00   61.6    80   12.6   224    18.6   1010.2    0.00 
 297   19:00   0.00   61.0    81   10.2   228    13.7   1010.2    0.00 
 297   19:10   0.00   60.6    82   10.0   228    12.6   1010.2    0.00 
 297   19:20   0.00   60.4    84    9.2   220    11.3   1010.2    0.00 
 297   19:30   0.00   60.2    84    8.4   213    10.8   1010.2    0.00 
 297   19:40   0.00   59.6    85    9.0   213    11.8   1010.2    0.00 
 297   19:50   0.00   59.3    86   10.6   217    12.9   1009.8    0.00 
 297   20:00   0.00   59.2    86   10.7   217    12.4   1009.8    0.00 
 297   20:10   0.00   59.2    87    9.8   218    12.1   1009.8    0.00 
 297   20:20   0.00   59.2    87   11.0   221    13.7   1010.2    0.00 
 297   20:30   0.00   59.1    87   10.3   222    13.4   1010.2    0.00 
 297   20:40   0.00   59.0    87    8.8   219    11.7   1010.2    0.00 
 297   20:50   0.00   59.0    87    8.9   222    11.3   1010.2    0.00 
 297   21:00   0.00   59.2    86   11.4   218    15.1   1010.2    0.00 
 297   21:10   0.00   59.7    84   13.2   221    15.1   1010.2    0.00 
 297   21:20   0.00   59.8    83   13.3   222    16.3   1010.2    0.00 
 297   21:30   0.00   60.1    82   11.7   215    15.8   1010.2    0.00 
 297   21:40   0.00   60.3    81   12.1   217    17.2   1010.5    0.00 
 297   21:50   0.00   60.9    79   14.4   218    19.9   1010.2    0.00 
 297   22:00   0.00   61.6    77   14.5   219    20.1   1010.5    0.00 
 297   22:10   0.00   61.8    76   13.9   212    18.6   1010.5    0.00 
 297   22:20   0.00   62.1    75   14.7   215    20.7   1010.5    0.00 
 297   22:30   0.00   62.3    75   16.0   218    21.0   1010.8    0.00 
 297   22:40   0.00   62.6    74   18.0   219    23.3   1010.8    0.00 
 297   22:50   0.00   62.6    74   19.4   217    28.6   1010.8    0.00 
 297   23:00   0.00   62.4    75   17.6   214    23.7   1010.8    0.00 
 297   23:10   0.00   62.3    75   14.1   214    18.3   1010.8    0.00 
 297   23:20   0.00   62.1    76   14.3   210    17.4   1010.8    0.00 
 297   23:30   0.00   61.4    77   11.3   197    14.9   1011.2    0.00 
 297   23:40   0.00   61.1    77    8.3   175    11.0   1011.2    0.00 
 297   23:50   0.00   61.7    74    7.6   162    10.2   1011.2    0.00 
 298    0:00   0.00   61.2    75    5.9   177     8.8   1011.2    0.00 
 298    0:10   0.00   61.1    74    9.0   168    12.2   1011.2    0.00 
 298    0:20   0.00   62.8    69    9.3   151    12.9   1011.2    0.00 
 298    0:30   0.00   62.9    69   10.3   144    14.5   1011.2    0.00 
 298    0:40   0.00   63.0    68   11.0   146    15.7   1011.2    0.00 
 298    0:50   0.00   62.8    69   10.2   150    14.0   1011.2    0.00 
 298    1:00   0.00   62.3    70    8.7   136    12.7   1010.8    0.00 
 298    1:10   0.00   62.3    70   10.1   152    15.6   1010.8    0.00 
 298    1:20   0.00   64.1    65   13.2   161    22.6   1010.8    0.00 
 298    1:30   0.00   65.0    63   14.2   166    20.4   1010.8    0.00 
 298    1:40   0.00   65.4    62   14.7   163    19.3   1010.8    0.00 
 298    1:50   0.00   65.7    61   13.2   161    18.8   1010.8    0.00 
 298    2:00   0.00   65.9    61   12.4   161    15.7   1010.8    0.00 
 298    2:10   0.00   66.0    60   11.5   168    15.6   1010.8    0.00 
 298    2:20   0.00   65.4    62   10.5   163    14.9   1010.5    0.00 
 298    2:30   0.00   64.8    63   11.1   156    15.9   1010.5    0.00 
 298    2:40   0.00   64.2    64   10.6   148    13.6   1010.5    0.00 
 298    2:50   0.00   63.8    65   10.5   145    13.3   1010.5    0.00 
 298    3:00   0.00   63.4    66    9.8   143    12.3   1010.5    0.00 
 298    3:10   0.00   63.5    66   10.0   136    12.6   1010.5    0.00 
 298    3:20   0.00   63.6    66   10.7   135    13.2   1010.2    0.00 
 298    3:30   0.00   64.1    65   11.7   132    14.8   1010.2    0.00 
 298    3:40   0.00   64.1    66   11.3   128    13.9   1010.5    0.00 
 298    3:50   0.00   63.9    66   11.6   129    16.1   1010.2    0.00 
 298    4:00   0.00   63.8    66   14.7   130    18.4   1010.2    0.00 
 298    4:10   0.00   63.1    68   14.1   132    19.4   1010.5    0.00 
 298    4:20   0.00   62.6    70   14.0   131    18.6   1010.8    0.00 
 298    4:30   0.00   62.2    72   13.2   125    17.9   1010.8    0.00 
 298    4:40   0.00   60.8    75   10.3   111    14.0   1010.8    0.00 
 298    4:50   0.00   59.9    78   10.1   119    13.8   1010.8    0.00 
 298    5:00   0.00   59.7    79   10.0   136    12.8   1011.2    0.00 
 298    5:10   0.00   59.9    79    7.7   166    10.7   1011.5    0.00 
 298    5:20   0.00   60.5    80   10.2   184    15.1   1011.9    0.00 
 298    5:30   0.00   61.3    87   14.5   201    21.2   1011.9    0.00 
 298    5:40   0.00   60.7    92   15.6   211    20.0   1012.2    0.00 
 298    5:50   0.00   60.3    95   16.6   211    22.0   1012.2    0.00 
 298    6:00   0.00   60.0    95   19.2   211    27.0   1012.5    0.00 
 298    6:10   0.00   59.0    95   20.2   216    26.5   1012.5    0.00 
 298    6:20   0.00   58.7    96   15.4   207    19.0   1012.5    0.01 
 298    6:30   0.00   58.8    96   17.7   202    22.0   1012.9    0.01 
 298    6:40   0.00   59.0    96   15.0   199    19.7   1012.9    0.00 
 298    6:50   0.03   59.1    96   12.6   196    16.6   1012.9    0.00 
 298    7:00   0.01   59.1    95   10.3   188    12.9   1012.9    0.00 
 298    7:10   0.03   59.1    95    9.5   181    12.3   1012.9    0.00 
 298    7:20   0.06   59.4    94    9.1   186    11.9   1012.9    0.00 
 298    7:30   0.07   60.0    94    9.9   181    15.3   1013.2    0.00 
 298    7:40   0.04   59.8    90   13.7   182    18.6   1013.2    0.01 
 298    7:50   0.03   59.3    88   11.9   172    15.4   1013.2    0.01 
 298    8:00   0.03   59.0    88   11.7   165    17.0   1013.5    0.01 
 298    8:10   0.03   59.1    87    9.0   158    13.7   1013.5    0.00 
 298    8:20   0.05   59.5    85    9.0   151    12.6   1013.9    0.00 
 298    8:30   0.07   59.7    86    8.5   134    10.6   1014.2    0.00 
 298    8:40   0.08   59.7    88    8.1   131    11.0   1014.2    0.00 
 298    8:50   0.09   60.0    87    6.2   130     8.5   1014.6    0.00 
 298    9:00   0.09   60.7    86    6.6   138     9.4   1014.6    0.00 

Return to Jepson Prairie Reserve graphs page.


Western Regional Climate Center,wrcc@dri.edu